sensor_id;sensor_type;location;lat;lon;timestamp;temperature;humidity
20376;DHT22;10347;51.828;6.466;2024-02-23T00:02:03;7.80;99.90
20376;DHT22;10347;51.828;6.466;2024-02-23T00:04:29;7.80;99.90
20376;DHT22;10347;51.828;6.466;2024-02-23T00:06:55;7.80;99.90
20376;DHT22;10347;51.828;6.466;2024-02-23T00:09:20;7.70;99.90
20376;DHT22;10347;51.828;6.466;2024-02-23T00:11:46;7.60;99.90
20376;DHT22;10347;51.828;6.466;2024-02-23T00:14:12;7.60;99.90
20376;DHT22;10347;51.828;6.466;2024-02-23T00:16:39;7.70;99.90
20376;DHT22;10347;51.828;6.466;2024-02-23T00:19:08;7.70;99.90
20376;DHT22;10347;51.828;6.466;2024-02-23T00:21:36;7.70;99.90
20376;DHT22;10347;51.828;6.466;2024-02-23T00:24:02;7.70;99.90
20376;DHT22;10347;51.828;6.466;2024-02-23T00:26:28;7.70;99.90
20376;DHT22;10347;51.828;6.466;2024-02-23T00:28:55;7.70;99.90
20376;DHT22;10347;51.828;6.466;2024-02-23T00:31:20;7.70;99.90
20376;DHT22;10347;51.828;6.466;2024-02-23T00:33:46;7.70;99.90
20376;DHT22;10347;51.828;6.466;2024-02-23T00:36:11;7.60;99.90
20376;DHT22;10347;51.828;6.466;2024-02-23T00:38:37;7.60;99.90
20376;DHT22;10347;51.828;6.466;2024-02-23T00:41:03;7.60;99.90
20376;DHT22;10347;51.828;6.466;2024-02-23T00:43:28;7.60;99.90
20376;DHT22;10347;51.828;6.466;2024-02-23T00:45:57;7.60;99.90
20376;DHT22;10347;51.828;6.466;2024-02-23T00:48:22;7.60;99.90
20376;DHT22;10347;51.828;6.466;2024-02-23T00:50:48;7.60;99.90
20376;DHT22;10347;51.828;6.466;2024-02-23T00:53:13;7.50;99.90
20376;DHT22;10347;51.828;6.466;2024-02-23T00:55:39;7.50;99.90
20376;DHT22;10347;51.828;6.466;2024-02-23T00:58:05;7.50;99.90
20376;DHT22;10347;51.828;6.466;2024-02-23T01:00:30;7.50;99.90
20376;DHT22;10347;51.828;6.466;2024-02-23T01:02:56;7.60;99.90
20376;DHT22;10347;51.828;6.466;2024-02-23T01:05:23;7.50;99.90
20376;DHT22;10347;51.828;6.466;2024-02-23T01:07:48;7.50;99.90
20376;DHT22;10347;51.828;6.466;2024-02-23T01:10:14;7.60;99.90
20376;DHT22;10347;51.828;6.466;2024-02-23T01:12:40;7.50;99.90
20376;DHT22;10347;51.828;6.466;2024-02-23T01:15:06;7.50;99.90
20376;DHT22;10347;51.828;6.466;2024-02-23T01:17:31;7.50;99.90
20376;DHT22;10347;51.828;6.466;2024-02-23T01:19:57;7.50;99.90
20376;DHT22;10347;51.828;6.466;2024-02-23T01:22:23;7.50;99.90
20376;DHT22;10347;51.828;6.466;2024-02-23T01:24:49;7.50;99.90
20376;DHT22;10347;51.828;6.466;2024-02-23T01:27:15;7.50;99.90
20376;DHT22;10347;51.828;6.466;2024-02-23T01:29:40;7.50;99.90
20376;DHT22;10347;51.828;6.466;2024-02-23T01:32:06;7.40;99.90
20376;DHT22;10347;51.828;6.466;2024-02-23T01:34:32;7.40;99.90
20376;DHT22;10347;51.828;6.466;2024-02-23T01:36:59;7.40;99.90
20376;DHT22;10347;51.828;6.466;2024-02-23T01:39:25;7.40;99.90
20376;DHT22;10347;51.828;6.466;2024-02-23T01:41:50;7.40;99.90
20376;DHT22;10347;51.828;6.466;2024-02-23T01:44:16;7.40;99.90
20376;DHT22;10347;51.828;6.466;2024-02-23T01:46:43;7.40;99.90
20376;DHT22;10347;51.828;6.466;2024-02-23T01:49:09;7.50;99.90
20376;DHT22;10347;51.828;6.466;2024-02-23T01:51:35;7.50;99.90
20376;DHT22;10347;51.828;6.466;2024-02-23T01:54:02;7.50;99.90
20376;DHT22;10347;51.828;6.466;2024-02-23T01:56:29;7.50;99.90
20376;DHT22;10347;51.828;6.466;2024-02-23T01:58:55;7.50;99.90
20376;DHT22;10347;51.828;6.466;2024-02-23T02:01:21;7.50;99.90
20376;DHT22;10347;51.828;6.466;2024-02-23T02:03:47;7.70;99.90
20376;DHT22;10347;51.828;6.466;2024-02-23T02:06:12;7.60;99.90
20376;DHT22;10347;51.828;6.466;2024-02-23T02:08:38;7.60;99.90
20376;DHT22;10347;51.828;6.466;2024-02-23T02:11:04;7.60;99.90
20376;DHT22;10347;51.828;6.466;2024-02-23T02:13:30;7.50;99.90
20376;DHT22;10347;51.828;6.466;2024-02-23T02:15:59;7.50;99.90
20376;DHT22;10347;51.828;6.466;2024-02-23T02:18:25;7.50;99.90
20376;DHT22;10347;51.828;6.466;2024-02-23T02:20:54;7.50;99.90
20376;DHT22;10347;51.828;6.466;2024-02-23T02:23:20;7.50;99.90
20376;DHT22;10347;51.828;6.466;2024-02-23T02:25:45;7.50;99.90
20376;DHT22;10347;51.828;6.466;2024-02-23T02:28:17;7.50;99.90
20376;DHT22;10347;51.828;6.466;2024-02-23T02:30:43;7.50;99.90
20376;DHT22;10347;51.828;6.466;2024-02-23T02:33:08;7.50;99.90
20376;DHT22;10347;51.828;6.466;2024-02-23T02:35:34;7.50;99.90
20376;DHT22;10347;51.828;6.466;2024-02-23T02:38:00;7.50;99.90
20376;DHT22;10347;51.828;6.466;2024-02-23T02:40:25;7.50;99.90
20376;DHT22;10347;51.828;6.466;2024-02-23T02:42:51;7.50;99.90
20376;DHT22;10347;51.828;6.466;2024-02-23T02:45:17;7.50;99.90
20376;DHT22;10347;51.828;6.466;2024-02-23T02:47:43;7.50;99.90
20376;DHT22;10347;51.828;6.466;2024-02-23T02:50:09;7.50;99.90
20376;DHT22;10347;51.828;6.466;2024-02-23T02:52:34;7.50;99.90
20376;DHT22;10347;51.828;6.466;2024-02-23T02:55:00;7.50;99.90
20376;DHT22;10347;51.828;6.466;2024-02-23T02:57:26;7.50;99.90
20376;DHT22;10347;51.828;6.466;2024-02-23T02:59:51;7.50;99.90
20376;DHT22;10347;51.828;6.466;2024-02-23T03:02:17;7.50;99.90
20376;DHT22;10347;51.828;6.466;2024-02-23T03:04:49;7.40;99.90
20376;DHT22;10347;51.828;6.466;2024-02-23T03:07:16;7.50;99.90
20376;DHT22;10347;51.828;6.466;2024-02-23T03:09:42;7.40;99.90
20376;DHT22;10347;51.828;6.466;2024-02-23T03:12:08;7.40;99.90
20376;DHT22;10347;51.828;6.466;2024-02-23T03:14:34;7.40;99.90
20376;DHT22;10347;51.828;6.466;2024-02-23T03:17:00;7.40;99.90
20376;DHT22;10347;51.828;6.466;2024-02-23T03:19:25;7.40;99.90
20376;DHT22;10347;51.828;6.466;2024-02-23T03:21:51;7.40;99.90
20376;DHT22;10347;51.828;6.466;2024-02-23T03:24:17;7.40;99.90
20376;DHT22;10347;51.828;6.466;2024-02-23T03:26:43;7.40;99.90
20376;DHT22;10347;51.828;6.466;2024-02-23T03:29:09;7.40;99.90
20376;DHT22;10347;51.828;6.466;2024-02-23T03:31:35;7.40;99.90
20376;DHT22;10347;51.828;6.466;2024-02-23T03:34:02;7.40;99.90
20376;DHT22;10347;51.828;6.466;2024-02-23T03:36:27;7.40;99.90
20376;DHT22;10347;51.828;6.466;2024-02-23T03:38:53;7.30;99.90
20376;DHT22;10347;51.828;6.466;2024-02-23T03:41:19;7.30;99.90
20376;DHT22;10347;51.828;6.466;2024-02-23T03:43:44;7.30;99.90
20376;DHT22;10347;51.828;6.466;2024-02-23T03:46:10;7.30;99.90
20376;DHT22;10347;51.828;6.466;2024-02-23T03:48:37;7.30;99.90
20376;DHT22;10347;51.828;6.466;2024-02-23T03:51:06;7.30;99.90
20376;DHT22;10347;51.828;6.466;2024-02-23T03:53:33;7.30;99.90
20376;DHT22;10347;51.828;6.466;2024-02-23T03:55:59;7.30;99.90
20376;DHT22;10347;51.828;6.466;2024-02-23T03:58:24;7.30;99.90
20376;DHT22;10347;51.828;6.466;2024-02-23T04:00:51;7.40;99.90
20376;DHT22;10347;51.828;6.466;2024-02-23T04:03:17;7.40;99.90
20376;DHT22;10347;51.828;6.466;2024-02-23T04:05:42;7.30;99.90
20376;DHT22;10347;51.828;6.466;2024-02-23T04:08:08;7.30;99.90
20376;DHT22;10347;51.828;6.466;2024-02-23T04:10:34;7.20;99.90
20376;DHT22;10347;51.828;6.466;2024-02-23T04:13:00;7.20;99.90
20376;DHT22;10347;51.828;6.466;2024-02-23T04:15:26;7.30;99.90
20376;DHT22;10347;51.828;6.466;2024-02-23T04:17:52;7.20;99.90
20376;DHT22;10347;51.828;6.466;2024-02-23T04:20:18;7.20;99.90
20376;DHT22;10347;51.828;6.466;2024-02-23T04:22:44;7.20;99.90
20376;DHT22;10347;51.828;6.466;2024-02-23T04:25:09;7.20;99.90
20376;DHT22;10347;51.828;6.466;2024-02-23T04:27:35;7.20;99.90
20376;DHT22;10347;51.828;6.466;2024-02-23T04:30:01;7.20;99.90
20376;DHT22;10347;51.828;6.466;2024-02-23T04:32:27;7.20;99.90
20376;DHT22;10347;51.828;6.466;2024-02-23T04:34:53;7.30;99.90
20376;DHT22;10347;51.828;6.466;2024-02-23T04:37:18;7.20;99.90
20376;DHT22;10347;51.828;6.466;2024-02-23T04:39:44;7.20;99.90
20376;DHT22;10347;51.828;6.466;2024-02-23T04:42:10;7.20;99.90
20376;DHT22;10347;51.828;6.466;2024-02-23T04:44:36;7.20;99.90
20376;DHT22;10347;51.828;6.466;2024-02-23T04:47:02;7.20;99.90
20376;DHT22;10347;51.828;6.466;2024-02-23T04:49:28;7.20;99.90
20376;DHT22;10347;51.828;6.466;2024-02-23T04:51:54;7.30;99.90
20376;DHT22;10347;51.828;6.466;2024-02-23T04:54:20;7.20;99.90
20376;DHT22;10347;51.828;6.466;2024-02-23T04:56:47;7.20;99.90
20376;DHT22;10347;51.828;6.466;2024-02-23T04:59:13;7.20;99.90
20376;DHT22;10347;51.828;6.466;2024-02-23T05:01:39;7.30;99.90
20376;DHT22;10347;51.828;6.466;2024-02-23T05:04:05;7.20;99.90
20376;DHT22;10347;51.828;6.466;2024-02-23T05:06:30;7.40;99.90
20376;DHT22;10347;51.828;6.466;2024-02-23T05:08:56;7.30;99.90
20376;DHT22;10347;51.828;6.466;2024-02-23T05:11:21;7.30;99.90
20376;DHT22;10347;51.828;6.466;2024-02-23T05:13:47;7.40;99.90
20376;DHT22;10347;51.828;6.466;2024-02-23T05:16:16;7.30;99.90
20376;DHT22;10347;51.828;6.466;2024-02-23T05:18:42;7.30;99.90
20376;DHT22;10347;51.828;6.466;2024-02-23T05:21:08;7.30;99.90
20376;DHT22;10347;51.828;6.466;2024-02-23T05:23:35;7.40;99.90
20376;DHT22;10347;51.828;6.466;2024-02-23T05:26:00;7.40;99.90
20376;DHT22;10347;51.828;6.466;2024-02-23T05:28:26;7.40;99.90
20376;DHT22;10347;51.828;6.466;2024-02-23T05:30:54;7.30;99.90
20376;DHT22;10347;51.828;6.466;2024-02-23T05:33:19;7.40;99.90
20376;DHT22;10347;51.828;6.466;2024-02-23T05:35:46;7.40;99.90
20376;DHT22;10347;51.828;6.466;2024-02-23T05:38:15;7.50;99.90
20376;DHT22;10347;51.828;6.466;2024-02-23T05:40:41;7.50;99.90
20376;DHT22;10347;51.828;6.466;2024-02-23T05:43:06;7.50;99.90
20376;DHT22;10347;51.828;6.466;2024-02-23T05:45:32;7.50;99.90
20376;DHT22;10347;51.828;6.466;2024-02-23T05:47:58;7.50;99.90
20376;DHT22;10347;51.828;6.466;2024-02-23T05:50:24;7.50;99.90
20376;DHT22;10347;51.828;6.466;2024-02-23T05:52:51;7.50;99.90
20376;DHT22;10347;51.828;6.466;2024-02-23T05:55:18;7.50;99.90
20376;DHT22;10347;51.828;6.466;2024-02-23T05:57:44;7.50;99.90
20376;DHT22;10347;51.828;6.466;2024-02-23T06:00:10;7.50;99.90
20376;DHT22;10347;51.828;6.466;2024-02-23T06:02:36;7.50;99.90
20376;DHT22;10347;51.828;6.466;2024-02-23T06:05:02;7.50;99.90
20376;DHT22;10347;51.828;6.466;2024-02-23T06:07:29;7.50;99.90
20376;DHT22;10347;51.828;6.466;2024-02-23T06:09:58;7.50;99.90
20376;DHT22;10347;51.828;6.466;2024-02-23T06:12:24;7.50;99.90
20376;DHT22;10347;51.828;6.466;2024-02-23T06:14:51;7.50;99.90
20376;DHT22;10347;51.828;6.466;2024-02-23T06:17:16;7.50;99.90
20376;DHT22;10347;51.828;6.466;2024-02-23T06:19:42;7.50;99.90
20376;DHT22;10347;51.828;6.466;2024-02-23T06:22:08;7.60;99.90
20376;DHT22;10347;51.828;6.466;2024-02-23T06:24:35;7.60;99.90
20376;DHT22;10347;51.828;6.466;2024-02-23T06:27:01;7.60;99.90
20376;DHT22;10347;51.828;6.466;2024-02-23T06:29:28;7.60;99.90
20376;DHT22;10347;51.828;6.466;2024-02-23T06:31:54;7.60;99.90
20376;DHT22;10347;51.828;6.466;2024-02-23T06:34:20;7.60;99.90
20376;DHT22;10347;51.828;6.466;2024-02-23T06:36:46;7.60;99.90
20376;DHT22;10347;51.828;6.466;2024-02-23T06:39:11;7.60;99.90
20376;DHT22;10347;51.828;6.466;2024-02-23T06:41:38;7.60;99.90
20376;DHT22;10347;51.828;6.466;2024-02-23T06:44:04;7.60;99.90
20376;DHT22;10347;51.828;6.466;2024-02-23T06:46:30;7.60;99.90
20376;DHT22;10347;51.828;6.466;2024-02-23T06:48:56;7.70;99.90
20376;DHT22;10347;51.828;6.466;2024-02-23T06:51:21;7.60;99.90
20376;DHT22;10347;51.828;6.466;2024-02-23T06:53:47;7.70;99.90
20376;DHT22;10347;51.828;6.466;2024-02-23T06:56:13;7.70;99.90
20376;DHT22;10347;51.828;6.466;2024-02-23T06:58:39;7.70;99.90
20376;DHT22;10347;51.828;6.466;2024-02-23T07:01:05;7.80;99.90
20376;DHT22;10347;51.828;6.466;2024-02-23T07:03:36;7.80;99.90
20376;DHT22;10347;51.828;6.466;2024-02-23T07:06:03;7.80;99.90
20376;DHT22;10347;51.828;6.466;2024-02-23T07:08:28;7.80;99.90
20376;DHT22;10347;51.828;6.466;2024-02-23T07:10:55;7.80;99.90
20376;DHT22;10347;51.828;6.466;2024-02-23T07:13:21;7.80;99.90
20376;DHT22;10347;51.828;6.466;2024-02-23T07:15:46;7.90;99.90
20376;DHT22;10347;51.828;6.466;2024-02-23T07:18:12;7.80;99.90
20376;DHT22;10347;51.828;6.466;2024-02-23T07:20:38;7.90;99.90
20376;DHT22;10347;51.828;6.466;2024-02-23T07:23:04;7.90;99.90
20376;DHT22;10347;51.828;6.466;2024-02-23T07:25:32;7.90;99.90
20376;DHT22;10347;51.828;6.466;2024-02-23T07:27:57;7.90;99.90
20376;DHT22;10347;51.828;6.466;2024-02-23T07:30:23;7.90;99.90
20376;DHT22;10347;51.828;6.466;2024-02-23T07:32:49;7.90;99.90
20376;DHT22;10347;51.828;6.466;2024-02-23T07:35:15;7.90;99.90
20376;DHT22;10347;51.828;6.466;2024-02-23T07:37:40;8.00;99.90
20376;DHT22;10347;51.828;6.466;2024-02-23T07:40:06;7.90;99.90
20376;DHT22;10347;51.828;6.466;2024-02-23T07:42:33;8.00;99.90
20376;DHT22;10347;51.828;6.466;2024-02-23T07:45:04;8.00;99.90
20376;DHT22;10347;51.828;6.466;2024-02-23T07:47:30;7.90;99.90
20376;DHT22;10347;51.828;6.466;2024-02-23T07:49:56;8.00;99.90
20376;DHT22;10347;51.828;6.466;2024-02-23T07:52:22;8.00;99.90
20376;DHT22;10347;51.828;6.466;2024-02-23T07:54:52;8.00;99.90
20376;DHT22;10347;51.828;6.466;2024-02-23T07:57:19;8.00;99.90
20376;DHT22;10347;51.828;6.466;2024-02-23T07:59:45;8.00;99.90
20376;DHT22;10347;51.828;6.466;2024-02-23T08:02:10;8.00;99.90
20376;DHT22;10347;51.828;6.466;2024-02-23T08:04:36;8.00;99.90
20376;DHT22;10347;51.828;6.466;2024-02-23T08:07:02;8.00;99.90
20376;DHT22;10347;51.828;6.466;2024-02-23T08:09:27;8.00;99.90
20376;DHT22;10347;51.828;6.466;2024-02-23T08:11:53;8.10;99.90
20376;DHT22;10347;51.828;6.466;2024-02-23T08:14:19;8.10;99.90
20376;DHT22;10347;51.828;6.466;2024-02-23T08:16:45;8.10;99.90
20376;DHT22;10347;51.828;6.466;2024-02-23T08:19:10;8.10;99.90
20376;DHT22;10347;51.828;6.466;2024-02-23T08:21:37;8.10;99.90
20376;DHT22;10347;51.828;6.466;2024-02-23T08:24:02;8.10;99.90
20376;DHT22;10347;51.828;6.466;2024-02-23T08:26:28;8.20;99.90
20376;DHT22;10347;51.828;6.466;2024-02-23T08:28:54;8.20;99.90
20376;DHT22;10347;51.828;6.466;2024-02-23T08:31:19;8.20;99.90
20376;DHT22;10347;51.828;6.466;2024-02-23T08:33:45;8.20;99.90
20376;DHT22;10347;51.828;6.466;2024-02-23T08:36:12;8.30;99.90
20376;DHT22;10347;51.828;6.466;2024-02-23T08:38:37;8.30;99.90
20376;DHT22;10347;51.828;6.466;2024-02-23T08:41:03;8.30;99.90
20376;DHT22;10347;51.828;6.466;2024-02-23T08:43:29;8.30;99.90
20376;DHT22;10347;51.828;6.466;2024-02-23T08:45:54;8.30;99.90
20376;DHT22;10347;51.828;6.466;2024-02-23T08:48:20;8.30;99.90
20376;DHT22;10347;51.828;6.466;2024-02-23T08:50:46;8.40;99.90
20376;DHT22;10347;51.828;6.466;2024-02-23T08:53:11;8.40;99.90
20376;DHT22;10347;51.828;6.466;2024-02-23T08:55:37;8.40;99.90
20376;DHT22;10347;51.828;6.466;2024-02-23T08:58:02;8.40;99.90
20376;DHT22;10347;51.828;6.466;2024-02-23T09:00:28;8.40;99.90
20376;DHT22;10347;51.828;6.466;2024-02-23T09:02:54;8.40;99.90
20376;DHT22;10347;51.828;6.466;2024-02-23T09:05:20;8.40;99.90
20376;DHT22;10347;51.828;6.466;2024-02-23T09:07:46;8.50;99.90
20376;DHT22;10347;51.828;6.466;2024-02-23T09:10:12;8.50;99.90
20376;DHT22;10347;51.828;6.466;2024-02-23T09:12:37;8.50;99.90
20376;DHT22;10347;51.828;6.466;2024-02-23T09:15:04;8.60;99.90
20376;DHT22;10347;51.828;6.466;2024-02-23T09:17:30;8.60;99.90
20376;DHT22;10347;51.828;6.466;2024-02-23T09:19:56;8.60;99.90
20376;DHT22;10347;51.828;6.466;2024-02-23T09:22:21;8.70;99.90
20376;DHT22;10347;51.828;6.466;2024-02-23T09:24:48;8.70;99.90
20376;DHT22;10347;51.828;6.466;2024-02-23T09:27:13;8.80;99.90
20376;DHT22;10347;51.828;6.466;2024-02-23T09:29:40;8.80;99.90
20376;DHT22;10347;51.828;6.466;2024-02-23T09:32:07;8.90;99.90
20376;DHT22;10347;51.828;6.466;2024-02-23T09:34:32;8.90;99.90
20376;DHT22;10347;51.828;6.466;2024-02-23T09:36:58;8.90;99.90
20376;DHT22;10347;51.828;6.466;2024-02-23T09:39:24;8.90;99.90
20376;DHT22;10347;51.828;6.466;2024-02-23T09:41:51;8.90;99.90
20376;DHT22;10347;51.828;6.466;2024-02-23T09:44:20;8.90;99.90
20376;DHT22;10347;51.828;6.466;2024-02-23T09:46:48;8.90;99.90
20376;DHT22;10347;51.828;6.466;2024-02-23T09:49:15;8.90;99.90
20376;DHT22;10347;51.828;6.466;2024-02-23T09:51:41;8.90;99.90
20376;DHT22;10347;51.828;6.466;2024-02-23T09:54:07;8.90;99.90
20376;DHT22;10347;51.828;6.466;2024-02-23T09:56:33;8.90;99.90
20376;DHT22;10347;51.828;6.466;2024-02-23T09:59:03;8.90;99.90
20376;DHT22;10347;51.828;6.466;2024-02-23T10:01:32;9.00;99.90
20376;DHT22;10347;51.828;6.466;2024-02-23T10:04:00;9.00;99.90
20376;DHT22;10347;51.828;6.466;2024-02-23T10:06:26;9.00;99.90
20376;DHT22;10347;51.828;6.466;2024-02-23T10:08:52;9.00;99.90
20376;DHT22;10347;51.828;6.466;2024-02-23T10:11:20;8.90;99.90
20376;DHT22;10347;51.828;6.466;2024-02-23T10:13:48;9.00;99.90
20376;DHT22;10347;51.828;6.466;2024-02-23T10:16:18;9.00;99.90
20376;DHT22;10347;51.828;6.466;2024-02-23T10:18:48;9.00;99.90
20376;DHT22;10347;51.828;6.466;2024-02-23T10:21:15;9.00;99.90
20376;DHT22;10347;51.828;6.466;2024-02-23T10:23:41;9.10;99.90
20376;DHT22;10347;51.828;6.466;2024-02-23T10:26:07;9.10;99.90
20376;DHT22;10347;51.828;6.466;2024-02-23T10:28:34;9.10;99.90
20376;DHT22;10347;51.828;6.466;2024-02-23T10:31:00;9.10;99.90
20376;DHT22;10347;51.828;6.466;2024-02-23T10:33:27;9.10;99.90
20376;DHT22;10347;51.828;6.466;2024-02-23T10:35:56;9.10;99.90
20376;DHT22;10347;51.828;6.466;2024-02-23T10:38:26;9.10;99.90
20376;DHT22;10347;51.828;6.466;2024-02-23T10:40:55;9.10;99.90
20376;DHT22;10347;51.828;6.466;2024-02-23T10:43:45;9.10;99.90
20376;DHT22;10347;51.828;6.466;2024-02-23T10:46:12;9.10;99.90
20376;DHT22;10347;51.828;6.466;2024-02-23T10:48:42;9.10;99.90
20376;DHT22;10347;51.828;6.466;2024-02-23T10:51:10;9.00;99.90
20376;DHT22;10347;51.828;6.466;2024-02-23T10:53:39;9.20;99.90
20376;DHT22;10347;51.828;6.466;2024-02-23T10:56:31;9.20;99.90
20376;DHT22;10347;51.828;6.466;2024-02-23T10:58:57;9.10;99.90
20376;DHT22;10347;51.828;6.466;2024-02-23T11:01:24;9.10;99.90
20376;DHT22;10347;51.828;6.466;2024-02-23T11:03:51;9.10;99.90
20376;DHT22;10347;51.828;6.466;2024-02-23T11:06:19;9.20;99.90
20376;DHT22;10347;51.828;6.466;2024-02-23T11:08:47;9.20;99.90
20376;DHT22;10347;51.828;6.466;2024-02-23T11:11:16;9.20;99.90
20376;DHT22;10347;51.828;6.466;2024-02-23T11:13:44;9.20;99.90
20376;DHT22;10347;51.828;6.466;2024-02-23T11:16:10;9.20;99.90
20376;DHT22;10347;51.828;6.466;2024-02-23T11:18:38;9.20;99.90
20376;DHT22;10347;51.828;6.466;2024-02-23T11:21:05;9.20;99.90
20376;DHT22;10347;51.828;6.466;2024-02-23T11:24:01;9.30;99.90
20376;DHT22;10347;51.828;6.466;2024-02-23T11:26:27;9.20;99.90
20376;DHT22;10347;51.828;6.466;2024-02-23T11:28:53;9.20;99.90
20376;DHT22;10347;51.828;6.466;2024-02-23T11:31:23;9.20;99.90
20376;DHT22;10347;51.828;6.466;2024-02-23T11:33:53;9.20;99.90
20376;DHT22;10347;51.828;6.466;2024-02-23T11:36:29;9.20;99.90
20376;DHT22;10347;51.828;6.466;2024-02-23T11:38:57;9.20;99.90
20376;DHT22;10347;51.828;6.466;2024-02-23T11:41:24;9.30;99.90
20376;DHT22;10347;51.828;6.466;2024-02-23T11:43:51;9.30;99.90
20376;DHT22;10347;51.828;6.466;2024-02-23T11:46:17;9.30;99.90
20376;DHT22;10347;51.828;6.466;2024-02-23T11:48:43;9.30;99.90
20376;DHT22;10347;51.828;6.466;2024-02-23T11:51:19;9.30;99.90
20376;DHT22;10347;51.828;6.466;2024-02-23T11:53:44;9.30;99.90
20376;DHT22;10347;51.828;6.466;2024-02-23T11:56:11;9.30;99.90
20376;DHT22;10347;51.828;6.466;2024-02-23T11:58:37;9.30;99.90
20376;DHT22;10347;51.828;6.466;2024-02-23T12:01:03;9.30;99.90
20376;DHT22;10347;51.828;6.466;2024-02-23T12:03:29;9.30;99.90
20376;DHT22;10347;51.828;6.466;2024-02-23T12:06:01;9.40;99.90
20376;DHT22;10347;51.828;6.466;2024-02-23T12:08:29;9.40;99.90
20376;DHT22;10347;51.828;6.466;2024-02-23T12:10:55;9.40;99.90
20376;DHT22;10347;51.828;6.466;2024-02-23T12:13:22;9.40;99.90
20376;DHT22;10347;51.828;6.466;2024-02-23T12:15:49;9.40;99.90
20376;DHT22;10347;51.828;6.466;2024-02-23T12:18:18;9.40;99.90
20376;DHT22;10347;51.828;6.466;2024-02-23T12:20:47;9.40;99.90
20376;DHT22;10347;51.828;6.466;2024-02-23T12:23:13;9.40;99.90
20376;DHT22;10347;51.828;6.466;2024-02-23T12:25:38;9.40;99.90
20376;DHT22;10347;51.828;6.466;2024-02-23T12:28:04;9.40;99.90
20376;DHT22;10347;51.828;6.466;2024-02-23T12:30:30;9.40;99.90
20376;DHT22;10347;51.828;6.466;2024-02-23T12:33:04;9.40;99.90
20376;DHT22;10347;51.828;6.466;2024-02-23T12:35:30;9.40;99.90
20376;DHT22;10347;51.828;6.466;2024-02-23T12:37:55;9.50;99.90
20376;DHT22;10347;51.828;6.466;2024-02-23T12:40:21;9.50;99.90
20376;DHT22;10347;51.828;6.466;2024-02-23T12:42:47;9.50;99.90
20376;DHT22;10347;51.828;6.466;2024-02-23T12:45:14;9.40;99.90
20376;DHT22;10347;51.828;6.466;2024-02-23T12:47:39;9.50;99.90
20376;DHT22;10347;51.828;6.466;2024-02-23T12:50:06;9.50;99.90
20376;DHT22;10347;51.828;6.466;2024-02-23T12:52:33;9.50;99.90
20376;DHT22;10347;51.828;6.466;2024-02-23T12:54:59;9.50;99.90
20376;DHT22;10347;51.828;6.466;2024-02-23T12:57:24;9.50;99.90
20376;DHT22;10347;51.828;6.466;2024-02-23T12:59:50;9.50;99.90
20376;DHT22;10347;51.828;6.466;2024-02-23T13:02:16;9.50;99.90
20376;DHT22;10347;51.828;6.466;2024-02-23T13:04:42;9.40;99.90
20376;DHT22;10347;51.828;6.466;2024-02-23T13:07:11;9.40;99.90
20376;DHT22;10347;51.828;6.466;2024-02-23T13:09:37;9.40;99.90
20376;DHT22;10347;51.828;6.466;2024-02-23T13:12:03;9.50;99.90
20376;DHT22;10347;51.828;6.466;2024-02-23T13:14:29;9.40;99.90
20376;DHT22;10347;51.828;6.466;2024-02-23T13:16:55;9.40;99.90
20376;DHT22;10347;51.828;6.466;2024-02-23T13:19:20;9.40;99.90
20376;DHT22;10347;51.828;6.466;2024-02-23T13:21:46;9.50;99.90
20376;DHT22;10347;51.828;6.466;2024-02-23T13:24:12;9.40;99.90
20376;DHT22;10347;51.828;6.466;2024-02-23T13:26:37;9.40;99.90
20376;DHT22;10347;51.828;6.466;2024-02-23T13:29:03;9.40;99.90
20376;DHT22;10347;51.828;6.466;2024-02-23T13:31:29;9.40;99.90
20376;DHT22;10347;51.828;6.466;2024-02-23T13:33:55;9.40;99.90
20376;DHT22;10347;51.828;6.466;2024-02-23T13:36:20;9.40;99.90
20376;DHT22;10347;51.828;6.466;2024-02-23T13:38:46;9.40;99.90
20376;DHT22;10347;51.828;6.466;2024-02-23T13:41:12;9.40;99.90
20376;DHT22;10347;51.828;6.466;2024-02-23T13:43:37;9.50;99.90
20376;DHT22;10347;51.828;6.466;2024-02-23T13:46:03;9.40;99.90
20376;DHT22;10347;51.828;6.466;2024-02-23T13:48:29;9.50;99.90
20376;DHT22;10347;51.828;6.466;2024-02-23T13:50:55;9.50;99.90
20376;DHT22;10347;51.828;6.466;2024-02-23T13:53:21;9.50;99.90
20376;DHT22;10347;51.828;6.466;2024-02-23T13:55:47;9.50;99.90
20376;DHT22;10347;51.828;6.466;2024-02-23T13:58:13;9.50;99.90
20376;DHT22;10347;51.828;6.466;2024-02-23T14:00:38;9.50;99.90
20376;DHT22;10347;51.828;6.466;2024-02-23T14:03:04;9.50;99.90
20376;DHT22;10347;51.828;6.466;2024-02-23T14:05:30;9.50;99.90
20376;DHT22;10347;51.828;6.466;2024-02-23T14:07:55;9.50;99.90
20376;DHT22;10347;51.828;6.466;2024-02-23T14:10:21;9.50;99.90
20376;DHT22;10347;51.828;6.466;2024-02-23T14:12:47;9.50;99.90
20376;DHT22;10347;51.828;6.466;2024-02-23T14:15:14;9.50;99.90
20376;DHT22;10347;51.828;6.466;2024-02-23T14:17:40;9.50;99.90
20376;DHT22;10347;51.828;6.466;2024-02-23T14:20:06;9.50;99.90
20376;DHT22;10347;51.828;6.466;2024-02-23T14:22:32;9.50;99.90
20376;DHT22;10347;51.828;6.466;2024-02-23T14:24:57;9.50;99.90
20376;DHT22;10347;51.828;6.466;2024-02-23T14:27:23;9.50;99.90
20376;DHT22;10347;51.828;6.466;2024-02-23T14:29:49;9.50;99.90
20376;DHT22;10347;51.828;6.466;2024-02-23T14:32:18;9.50;99.90
20376;DHT22;10347;51.828;6.466;2024-02-23T14:34:44;9.60;99.90
20376;DHT22;10347;51.828;6.466;2024-02-23T14:37:10;9.50;99.90
20376;DHT22;10347;51.828;6.466;2024-02-23T14:39:36;9.60;99.90
20376;DHT22;10347;51.828;6.466;2024-02-23T14:42:02;9.60;99.90
20376;DHT22;10347;51.828;6.466;2024-02-23T14:44:28;9.60;99.90
20376;DHT22;10347;51.828;6.466;2024-02-23T14:46:55;9.60;99.90
20376;DHT22;10347;51.828;6.466;2024-02-23T14:49:21;9.60;99.90
20376;DHT22;10347;51.828;6.466;2024-02-23T14:51:47;9.60;99.90
20376;DHT22;10347;51.828;6.466;2024-02-23T14:54:14;9.60;99.90
20376;DHT22;10347;51.828;6.466;2024-02-23T14:56:40;9.70;99.90
20376;DHT22;10347;51.828;6.466;2024-02-23T14:59:08;9.70;99.90
20376;DHT22;10347;51.828;6.466;2024-02-23T15:01:39;9.70;99.90
20376;DHT22;10347;51.828;6.466;2024-02-23T15:04:07;9.70;99.90
20376;DHT22;10347;51.828;6.466;2024-02-23T15:06:33;9.70;99.90
20376;DHT22;10347;51.828;6.466;2024-02-23T15:09:00;9.80;99.90
20376;DHT22;10347;51.828;6.466;2024-02-23T15:11:26;9.70;99.90
20376;DHT22;10347;51.828;6.466;2024-02-23T15:13:51;9.70;99.90
20376;DHT22;10347;51.828;6.466;2024-02-23T15:16:26;9.70;99.90
20376;DHT22;10347;51.828;6.466;2024-02-23T15:18:52;9.70;99.90
20376;DHT22;10347;51.828;6.466;2024-02-23T15:21:18;9.80;99.90
20376;DHT22;10347;51.828;6.466;2024-02-23T15:23:43;9.80;99.90
20376;DHT22;10347;51.828;6.466;2024-02-23T15:26:10;9.80;99.90
20376;DHT22;10347;51.828;6.466;2024-02-23T15:28:37;9.80;99.90
20376;DHT22;10347;51.828;6.466;2024-02-23T15:31:03;9.80;99.90
20376;DHT22;10347;51.828;6.466;2024-02-23T15:33:29;9.80;99.90
20376;DHT22;10347;51.828;6.466;2024-02-23T15:35:55;9.80;99.90
20376;DHT22;10347;51.828;6.466;2024-02-23T15:38:21;9.90;99.90
20376;DHT22;10347;51.828;6.466;2024-02-23T15:40:47;9.90;99.90